Time;durP1;ratioP1;P1;durP2;ratioP2;P2;SDS_P1;SDS_P2;PMS_P1;PMS_P2;Temp;Humidity;BMP_temperature;BMP_pressure;BME280_temperature;BME280_humidity;BME280_pressure;Samples;Min_cycle;Max_cycle;Signal;HPM_P1;HPM_P2
2021/10/24 00:01:10;;;;;;;10.07;7.00;;;4.70;99.90;;;;;;5066505;28;20201;-48
2021/10/24 00:03:37;;;;;;;7.60;6.80;;;4.70;99.90;;;;;;5077319;28;20232;-45
2021/10/24 00:06:04;;;;;;;12.63;7.20;;;4.70;99.90;;;;;;5082619;28;20240;-48
2021/10/24 00:08:31;;;;;;;9.93;7.10;;;4.70;99.90;;;;;;5076192;28;20210;-43
2021/10/24 00:10:58;;;;;;;12.10;6.57;;;4.70;99.90;;;;;;5079939;28;20272;-44
2021/10/24 00:13:26;;;;;;;12.27;6.77;;;4.70;99.90;;;;;;5088893;28;20229;-44
2021/10/24 00:15:53;;;;;;;12.80;6.87;;;4.70;99.90;;;;;;5066195;28;20222;-44
2021/10/24 00:18:19;;;;;;;11.37;6.00;;;4.80;99.90;;;;;;5079042;28;20202;-45
2021/10/24 00:20:46;;;;;;;10.27;6.03;;;4.80;99.90;;;;;;5068525;28;21936;-42
2021/10/24 00:23:13;;;;;;;6.10;5.23;;;4.80;99.90;;;;;;5083104;28;20232;-46
2021/10/24 00:25:41;;;;;;;7.97;5.60;;;4.80;99.90;;;;;;5080777;28;20861;-47
2021/10/24 00:28:08;;;;;;;8.57;5.30;;;4.80;99.90;;;;;;5102950;28;20564;-46
2021/10/24 00:30:35;;;;;;;7.90;5.47;;;4.90;99.90;;;;;;5076340;28;20206;-44
2021/10/24 00:33:03;;;;;;;11.37;6.07;;;4.90;99.90;;;;;;5081063;28;20690;-42
2021/10/24 00:35:30;;;;;;;11.00;6.10;;;4.90;99.90;;;;;;5081001;28;20717;-42
2021/10/24 00:37:57;;;;;;;9.10;5.17;;;4.80;99.90;;;;;;5080575;28;20233;-45
2021/10/24 00:40:23;;;;;;;9.10;5.00;;;4.80;99.90;;;;;;5086389;28;20204;-44
2021/10/24 00:42:53;;;;;;;11.60;4.77;;;4.80;99.90;;;;;;5082172;28;20218;-41
2021/10/24 00:45:20;;;;;;;6.80;5.17;;;4.80;99.90;;;;;;5096760;28;20774;-43
2021/10/24 00:47:47;;;;;;;7.00;4.90;;;4.90;99.90;;;;;;5077730;28;20224;-44
2021/10/24 00:50:14;;;;;;;5.07;4.57;;;4.80;99.90;;;;;;5083324;28;20210;-43
2021/10/24 00:52:42;;;;;;;9.30;5.20;;;4.80;99.90;;;;;;5086748;28;20229;-45
2021/10/24 00:55:09;;;;;;;6.97;5.17;;;4.80;99.90;;;;;;5086911;28;20308;-45
2021/10/24 00:57:36;;;;;;;8.57;4.87;;;4.80;99.90;;;;;;5078997;28;20194;-44
2021/10/24 01:00:08;;;;;;;10.70;4.87;;;4.70;99.90;;;;;;5091600;28;20206;-43
2021/10/24 01:02:35;;;;;;;5.43;4.63;;;4.70;99.90;;;;;;5079490;28;20208;-43
2021/10/24 01:05:02;;;;;;;6.50;5.10;;;4.70;99.90;;;;;;5069072;28;20205;-48
2021/10/24 01:07:30;;;;;;;7.17;4.60;;;4.70;99.90;;;;;;5083235;28;20221;-44
2021/10/24 01:09:56;;;;;;;9.77;6.43;;;4.70;99.90;;;;;;5082654;28;20255;-42
2021/10/24 01:12:24;;;;;;;8.20;4.70;;;4.70;99.90;;;;;;5097144;28;20570;-43
2021/10/24 01:14:50;;;;;;;7.47;4.77;;;4.80;99.90;;;;;;5094080;28;20807;-44
2021/10/24 01:17:19;;;;;;;11.27;5.10;;;4.80;99.90;;;;;;5090542;28;20209;-48
2021/10/24 01:19:46;;;;;;;7.50;5.00;;;4.80;99.90;;;;;;5063433;28;20498;-44
2021/10/24 01:22:14;;;;;;;9.03;4.90;;;4.90;99.90;;;;;;5088541;28;20202;-46
2021/10/24 01:24:40;;;;;;;10.83;5.07;;;4.90;99.90;;;;;;5082348;28;20220;-44
2021/10/24 01:27:08;;;;;;;12.63;5.10;;;4.90;99.90;;;;;;5093326;28;20205;-43
2021/10/24 01:29:34;;;;;;;7.10;4.80;;;5.00;99.90;;;;;;5101811;28;20304;-43
2021/10/24 01:32:01;;;;;;;8.83;5.30;;;5.00;99.90;;;;;;5094909;28;20198;-45
2021/10/24 01:34:28;;;;;;;8.73;4.80;;;5.00;99.90;;;;;;5076676;28;20220;-42
2021/10/24 01:36:55;;;;;;;9.03;4.33;;;5.00;99.90;;;;;;5068653;28;20476;-45
2021/10/24 01:39:23;;;;;;;5.77;4.60;;;5.00;99.90;;;;;;5083880;28;20198;-47
2021/10/24 01:41:50;;;;;;;6.50;4.60;;;5.00;99.90;;;;;;5077222;28;20217;-46
2021/10/24 01:44:17;;;;;;;7.90;4.23;;;5.10;99.90;;;;;;5102004;28;20217;-48
2021/10/24 01:46:44;;;;;;;7.07;4.80;;;5.10;99.90;;;;;;5097871;28;20197;-48
2021/10/24 01:49:12;;;;;;;10.80;4.67;;;5.10;99.90;;;;;;5071487;28;20198;-44
2021/10/24 01:51:39;;;;;;;6.27;4.57;;;5.20;99.90;;;;;;5081966;28;20289;-46
2021/10/24 01:54:05;;;;;;;8.93;4.43;;;5.20;99.90;;;;;;5088038;28;20239;-46
2021/10/24 01:56:34;;;;;;;5.60;4.10;;;5.20;99.90;;;;;;5092708;28;20208;-46
2021/10/24 01:59:00;;;;;;;12.07;5.03;;;5.30;99.90;;;;;;5092345;28;20709;-43
2021/10/24 02:01:47;;;;;;;8.67;3.97;;;5.30;99.90;;;;;;5094525;28;20868;-43
2021/10/24 02:04:32;;;;;;;7.47;4.33;;;5.30;99.90;;;;;;5092641;28;20217;-43
2021/10/24 02:07:13;;;;;;;8.63;4.03;;;5.30;99.90;;;;;;5085621;28;20284;-44
2021/10/24 02:09:39;;;;;;;6.43;3.73;;;5.40;99.90;;;;;;5084569;28;20684;-44
2021/10/24 02:12:07;;;;;;;8.57;3.97;;;5.40;99.90;;;;;;5083399;28;20205;-46
2021/10/24 02:14:34;;;;;;;7.50;4.10;;;5.50;99.90;;;;;;5080951;28;20312;-43
2021/10/24 02:17:01;;;;;;;11.90;4.20;;;5.50;99.90;;;;;;5083192;28;20216;-44
2021/10/24 02:19:28;;;;;;;8.07;3.90;;;5.50;99.90;;;;;;5085368;28;20261;-44
2021/10/24 02:21:55;;;;;;;6.47;4.53;;;5.50;99.90;;;;;;5072670;28;20242;-48
2021/10/24 02:24:22;;;;;;;7.90;3.90;;;5.60;99.90;;;;;;5086933;28;20217;-43
2021/10/24 02:26:49;;;;;;;9.40;3.83;;;5.60;99.90;;;;;;5101321;28;20253;-43
2021/10/24 02:29:17;;;;;;;5.30;3.97;;;5.60;99.90;;;;;;5091737;28;20210;-43
2021/10/24 02:31:44;;;;;;;7.70;3.63;;;5.70;99.90;;;;;;5099156;28;20203;-47
2021/10/24 02:34:31;;;;;;;6.90;4.03;;;5.60;99.90;;;;;;5095089;28;20225;-43
2021/10/24 02:37:30;;;;;;;5.43;3.70;;;5.70;99.90;;;;;;5076094;28;20556;-45
2021/10/24 02:39:57;;;;;;;9.37;4.13;;;5.70;99.90;;;;;;5075099;28;20297;-43
2021/10/24 02:42:31;;;;;;;7.13;3.90;;;5.70;99.90;;;;;;5080869;28;20212;-45
2021/10/24 02:44:59;;;;;;;6.17;3.47;;;5.70;99.90;;;;;;5082956;28;20201;-45
2021/10/24 02:47:26;;;;;;;12.80;3.93;;;5.70;99.90;;;;;;5093725;28;20204;-44
2021/10/24 02:49:52;;;;;;;8.53;3.47;;;5.70;99.90;;;;;;5095875;28;20291;-44
2021/10/24 02:52:19;;;;;;;6.00;4.23;;;5.80;99.90;;;;;;5080672;28;20214;-44
2021/10/24 02:54:46;;;;;;;6.67;3.60;;;5.80;99.90;;;;;;5080116;28;20957;-48
2021/10/24 02:57:13;;;;;;;8.70;3.90;;;5.80;99.90;;;;;;5101067;28;20208;-47
2021/10/24 02:59:40;;;;;;;8.80;3.60;;;5.80;99.90;;;;;;5089072;28;20282;-45
2021/10/24 03:02:09;;;;;;;4.60;3.60;;;5.80;99.90;;;;;;5103708;28;20193;-43
2021/10/24 03:04:36;;;;;;;9.60;4.27;;;5.80;99.90;;;;;;5095573;28;20224;-45
2021/10/24 03:07:03;;;;;;;7.90;2.97;;;5.80;99.90;;;;;;5075128;28;20202;-44
2021/10/24 03:09:30;;;;;;;10.67;3.40;;;5.80;99.90;;;;;;5062287;28;20228;-46
2021/10/24 03:11:57;;;;;;;10.30;3.43;;;5.80;99.90;;;;;;5082148;28;20206;-44
2021/10/24 03:14:24;;;;;;;7.03;3.03;;;5.80;99.90;;;;;;5095478;28;20579;-44
2021/10/24 03:16:51;;;;;;;10.80;3.50;;;5.80;99.90;;;;;;5081667;28;20300;-44
2021/10/24 03:19:20;;;;;;;7.67;3.33;;;5.80;99.90;;;;;;5091187;28;20208;-44
2021/10/24 03:21:52;;;;;;;5.37;3.10;;;5.80;99.90;;;;;;5093798;28;20292;-46
2021/10/24 03:24:19;;;;;;;6.70;4.00;;;5.70;99.90;;;;;;5083439;28;20227;-46
2021/10/24 03:26:46;;;;;;;7.60;3.23;;;5.70;99.90;;;;;;5076780;28;20221;-46
2021/10/24 03:29:15;;;;;;;6.27;3.30;;;5.70;99.90;;;;;;5081376;28;20224;-43
2021/10/24 03:31:42;;;;;;;7.57;3.17;;;5.70;99.90;;;;;;5075896;28;20352;-44
2021/10/24 03:34:08;;;;;;;5.60;2.73;;;5.70;99.90;;;;;;5086763;28;20244;-42
2021/10/24 03:36:36;;;;;;;6.17;2.90;;;5.70;99.90;;;;;;5078470;28;20228;-44
2021/10/24 03:39:04;;;;;;;5.60;3.00;;;5.70;99.90;;;;;;5082425;28;20194;-45
2021/10/24 03:41:31;;;;;;;6.63;2.97;;;5.70;99.90;;;;;;5058649;28;20210;-46
2021/10/24 03:43:58;;;;;;;3.13;2.80;;;5.60;99.90;;;;;;5082240;28;20222;-46
2021/10/24 03:46:25;;;;;;;9.90;3.30;;;5.60;99.90;;;;;;5093364;28;20239;-44
2021/10/24 03:48:51;;;;;;;7.47;2.80;;;5.60;99.90;;;;;;5066328;28;20294;-44
2021/10/24 03:51:18;;;;;;;6.17;2.97;;;5.60;99.90;;;;;;5089225;28;20246;-45
2021/10/24 03:53:48;;;;;;;3.90;2.70;;;5.60;99.90;;;;;;5085310;28;20206;-43
2021/10/24 03:56:15;;;;;;;8.93;3.13;;;5.50;99.90;;;;;;5067419;28;20706;-44
2021/10/24 03:58:44;;;;;;;4.40;2.90;;;5.50;99.90;;;;;;5075388;28;20286;-47
2021/10/24 04:01:14;;;;;;;6.20;2.73;;;5.50;99.90;;;;;;5077244;28;20210;-47
2021/10/24 04:03:41;;;;;;;5.43;2.67;;;5.40;99.90;;;;;;5075814;28;20283;-45
2021/10/24 04:06:08;;;;;;;6.53;2.80;;;5.40;99.90;;;;;;5088920;28;20293;-49
2021/10/24 04:08:34;;;;;;;8.33;2.50;;;5.40;99.90;;;;;;5075814;28;20964;-43
2021/10/24 04:11:02;;;;;;;12.00;3.10;;;5.40;99.90;;;;;;5069310;28;20579;-43
2021/10/24 04:13:30;;;;;;;5.80;2.60;;;5.30;99.90;;;;;;5077533;28;20221;-45
2021/10/24 04:15:57;;;;;;;3.93;2.93;;;5.30;99.90;;;;;;5095417;28;20221;-46
2021/10/24 04:18:43;;;;;;;6.30;3.30;;;5.30;99.90;;;;;;5088216;28;20968;-45
2021/10/24 04:21:10;;;;;;;5.83;2.93;;;5.20;99.90;;;;;;5085579;28;20201;-45
2021/10/24 04:23:37;;;;;;;7.00;2.20;;;5.20;99.90;;;;;;5082503;28;20274;-45
2021/10/24 04:26:05;;;;;;;4.37;2.80;;;5.20;99.90;;;;;;5085429;28;20724;-43
2021/10/24 04:28:31;;;;;;;5.43;2.80;;;5.20;99.90;;;;;;5068898;28;20953;-44
2021/10/24 04:30:58;;;;;;;10.23;3.07;;;5.20;99.90;;;;;;5086083;28;20202;-43
2021/10/24 04:33:25;;;;;;;8.07;2.57;;;5.10;99.90;;;;;;5078462;28;20221;-46
2021/10/24 04:35:51;;;;;;;6.37;2.50;;;5.10;99.90;;;;;;5086908;28;20225;-49
2021/10/24 04:38:18;;;;;;;5.63;2.47;;;5.10;99.90;;;;;;5078840;28;20212;-46
2021/10/24 04:40:46;;;;;;;3.40;2.23;;;5.10;99.90;;;;;;5090895;28;20277;-46
2021/10/24 04:43:15;;;;;;;7.23;2.37;;;5.00;99.90;;;;;;5073491;28;20556;-46
2021/10/24 04:45:42;;;;;;;4.83;2.60;;;5.00;99.90;;;;;;5090030;28;20877;-47
2021/10/24 04:48:09;;;;;;;5.10;2.47;;;5.00;99.90;;;;;;5099194;28;20195;-44
2021/10/24 04:50:45;;;;;;;4.70;2.33;;;5.00;99.90;;;;;;5081871;28;20233;-46
2021/10/24 04:53:15;;;;;;;5.87;2.80;;;5.00;99.90;;;;;;5088397;28;20226;-43
2021/10/24 04:55:43;;;;;;;3.83;2.50;;;4.90;99.90;;;;;;5076337;28;20229;-45
2021/10/24 04:58:10;;;;;;;5.87;2.53;;;4.90;99.90;;;;;;5071671;28;20194;-44
2021/10/24 05:00:39;;;;;;;3.40;2.40;;;4.90;99.90;;;;;;5083168;28;20196;-49
2021/10/24 05:03:06;;;;;;;7.13;2.53;;;4.90;99.90;;;;;;5092750;28;20236;-46
2021/10/24 05:05:34;;;;;;;5.70;3.03;;;4.80;99.90;;;;;;5072133;28;20359;-49
2021/10/24 05:08:01;;;;;;;6.87;2.90;;;4.80;99.90;;;;;;5084287;28;20201;-45
2021/10/24 05:10:28;;;;;;;8.07;2.53;;;4.80;99.90;;;;;;5077850;28;20206;-45
2021/10/24 05:12:55;;;;;;;5.83;2.60;;;4.70;99.90;;;;;;5065674;28;20233;-44
2021/10/24 05:15:21;;;;;;;8.10;3.10;;;4.70;99.90;;;;;;5073143;28;20217;-45
2021/10/24 05:17:50;;;;;;;4.33;2.50;;;4.70;99.90;;;;;;5079763;28;20202;-49
2021/10/24 05:20:16;;;;;;;5.13;2.80;;;4.60;99.90;;;;;;5085228;28;20205;-44
2021/10/24 05:22:43;;;;;;;3.50;2.57;;;4.60;99.90;;;;;;5077813;28;20222;-42
2021/10/24 05:25:10;;;;;;;5.90;2.70;;;4.50;99.90;;;;;;5085134;28;20202;-43
2021/10/24 05:27:39;;;;;;;8.70;2.80;;;4.50;99.90;;;;;;5085556;28;20194;-46
2021/10/24 05:30:07;;;;;;;5.03;2.70;;;4.40;99.90;;;;;;5064498;28;20216;-46
2021/10/24 05:32:34;;;;;;;6.10;2.77;;;4.40;99.90;;;;;;5080120;28;20338;-47
2021/10/24 05:35:05;;;;;;;5.00;2.40;;;4.40;99.90;;;;;;5072502;28;20205;-47
2021/10/24 05:37:32;;;;;;;5.57;2.93;;;4.40;99.90;;;;;;5076202;28;20337;-45
2021/10/24 05:39:58;;;;;;;6.37;2.47;;;4.40;99.90;;;;;;5090568;28;20212;-47
2021/10/24 05:42:46;;;;;;;8.93;3.03;;;4.30;99.90;;;;;;5078716;28;20217;-44
2021/10/24 05:45:13;;;;;;;5.73;3.00;;;4.30;99.90;;;;;;5067808;28;20225;-44
2021/10/24 05:47:40;;;;;;;5.90;2.70;;;4.30;99.90;;;;;;5061816;28;20288;-45
2021/10/24 05:50:16;;;;;;;6.47;2.60;;;4.30;99.90;;;;;;5075835;28;20201;-45
2021/10/24 05:52:43;;;;;;;4.27;2.63;;;4.20;99.90;;;;;;5078918;28;20234;-43
2021/10/24 05:55:11;;;;;;;4.57;2.63;;;4.20;99.90;;;;;;5075306;28;20205;-45
2021/10/24 05:57:37;;;;;;;6.07;3.47;;;4.20;99.90;;;;;;5086015;28;20198;-44
2021/10/24 06:00:20;;;;;;;4.70;2.83;;;4.20;99.90;;;;;;5072223;28;20347;-43
2021/10/24 06:02:50;;;;;;;10.97;3.07;;;4.20;99.90;;;;;;5074362;28;20225;-45
2021/10/24 06:05:18;;;;;;;4.00;2.60;;;4.20;99.90;;;;;;5087979;28;20202;-45
2021/10/24 06:07:45;;;;;;;5.13;2.80;;;4.20;99.90;;;;;;5071596;28;20209;-46
2021/10/24 06:10:15;;;;;;;7.53;2.80;;;4.20;99.90;;;;;;5085239;28;20194;-44
2021/10/24 06:12:44;;;;;;;5.23;3.07;;;4.20;99.90;;;;;;5088112;28;20198;-45
2021/10/24 06:15:12;;;;;;;12.40;3.10;;;4.20;99.90;;;;;;5071433;28;20285;-43
2021/10/24 06:17:39;;;;;;;4.67;2.70;;;4.20;99.90;;;;;;5077685;28;20286;-45
2021/10/24 06:20:08;;;;;;;3.33;2.90;;;4.10;99.90;;;;;;5080353;28;20204;-46
2021/10/24 06:22:36;;;;;;;8.80;3.60;;;4.20;99.90;;;;;;5081732;28;20210;-47
2021/10/24 06:25:07;;;;;;;3.40;2.53;;;4.10;99.90;;;;;;5089698;28;20213;-48
2021/10/24 06:27:36;;;;;;;5.90;2.80;;;4.20;99.90;;;;;;5072851;28;20282;-45
2021/10/24 06:30:04;;;;;;;6.63;2.87;;;4.20;99.90;;;;;;5086915;28;20198;-47
2021/10/24 06:33:03;;;;;;;4.50;3.13;;;4.20;99.90;;;;;;5070160;28;20321;-46
2021/10/24 06:35:59;;;;;;;8.73;3.30;;;4.20;99.90;;;;;;5078442;28;20205;-46
2021/10/24 06:38:45;;;;;;;7.90;3.10;;;4.20;99.90;;;;;;5077729;28;20706;-45
2021/10/24 06:41:25;;;;;;;5.83;2.57;;;4.20;99.90;;;;;;5070768;28;21008;-44
2021/10/24 06:44:05;;;;;;;5.57;3.10;;;4.20;99.90;;;;;;5076326;28;20275;-43
2021/10/24 06:46:50;;;;;;;5.63;3.37;;;4.20;99.90;;;;;;5067261;28;20231;-44
2021/10/24 06:49:35;;;;;;;7.37;3.73;;;4.30;99.90;;;;;;5082989;28;20212;-44
2021/10/24 06:52:28;;;;;;;6.67;3.50;;;4.30;99.90;;;;;;5062803;28;20210;-44
2021/10/24 06:55:10;;;;;;;3.67;3.03;;;4.30;99.90;;;;;;5069415;28;20220;-43
2021/10/24 06:57:56;;;;;;;10.30;3.97;;;4.30;99.90;;;;;;5087000;28;20271;-45
2021/10/24 07:00:43;;;;;;;8.23;3.53;;;4.30;99.90;;;;;;5087848;28;20257;-45
2021/10/24 07:03:45;;;;;;;7.90;3.50;;;4.40;99.90;;;;;;5076413;28;20217;-49
2021/10/24 07:06:32;;;;;;;9.43;3.90;;;4.40;99.90;;;;;;5079137;28;20198;-46
2021/10/24 07:09:19;;;;;;;7.37;4.03;;;4.50;99.90;;;;;;5056686;28;20759;-44
2021/10/24 07:11:47;;;;;;;4.83;3.43;;;4.50;99.90;;;;;;5086514;28;20201;-47
2021/10/24 07:14:14;;;;;;;8.67;3.90;;;4.60;99.90;;;;;;5085573;28;20243;-43
2021/10/24 07:16:41;;;;;;;7.23;4.10;;;4.60;99.90;;;;;;5087333;28;20226;-45
2021/10/24 07:19:07;;;;;;;6.53;4.37;;;4.70;99.90;;;;;;5055029;28;20213;-44
2021/10/24 07:21:34;;;;;;;8.63;4.20;;;4.80;99.90;;;;;;5078790;28;20255;-45
2021/10/24 07:24:02;;;;;;;11.70;4.50;;;4.80;99.90;;;;;;5075825;28;20299;-46
2021/10/24 07:26:35;;;;;;;8.87;4.10;;;4.90;99.90;;;;;;5079220;28;20232;-46
2021/10/24 07:29:03;;;;;;;12.47;4.40;;;5.00;99.90;;;;;;5076243;28;20260;-48
2021/10/24 07:31:30;;;;;;;7.27;4.30;;;5.00;99.90;;;;;;5076401;28;20202;-44
2021/10/24 07:34:20;;;;;;;7.80;4.13;;;5.10;99.90;;;;;;5071334;28;20838;-43
2021/10/24 07:36:47;;;;;;;11.73;4.73;;;5.20;99.90;;;;;;5081196;28;20214;-46
2021/10/24 07:39:14;;;;;;;7.13;3.97;;;5.30;99.90;;;;;;5074008;28;20670;-44
2021/10/24 07:41:41;;;;;;;11.27;4.47;;;5.40;99.90;;;;;;5080333;28;20204;-45
2021/10/24 07:44:11;;;;;;;5.73;4.37;;;5.40;99.90;;;;;;5072731;28;20639;-45
2021/10/24 07:46:38;;;;;;;8.63;4.77;;;5.50;99.90;;;;;;5072173;28;20309;-44
2021/10/24 07:49:05;;;;;;;5.10;3.93;;;5.60;99.90;;;;;;5068630;28;20185;-47
2021/10/24 07:51:33;;;;;;;6.23;3.93;;;5.60;99.90;;;;;;5066359;28;20206;-45
2021/10/24 07:54:00;;;;;;;8.07;3.90;;;5.70;99.90;;;;;;5071344;28;20226;-44
2021/10/24 07:56:27;;;;;;;7.40;4.30;;;5.80;99.90;;;;;;5081276;28;20210;-46
2021/10/24 07:59:18;;;;;;;9.83;4.20;;;5.90;99.90;;;;;;5076593;28;20221;-46
2021/10/24 08:01:45;;;;;;;8.20;4.33;;;6.00;99.90;;;;;;5079454;28;20202;-45
2021/10/24 08:04:13;;;;;;;8.90;4.20;;;6.10;99.90;;;;;;5079369;28;20210;-44
2021/10/24 08:06:40;;;;;;;6.63;3.87;;;6.10;99.90;;;;;;5071670;28;20202;-47
2021/10/24 08:09:11;;;;;;;6.30;4.30;;;6.20;99.90;;;;;;5071287;28;20216;-49
2021/10/24 08:11:43;;;;;;;12.80;3.90;;;6.30;99.90;;;;;;5076639;28;20215;-47
2021/10/24 08:14:11;;;;;;;8.03;4.40;;;6.40;99.90;;;;;;5092298;28;20311;-46
2021/10/24 08:16:42;;;;;;;9.17;4.03;;;6.50;99.90;;;;;;5086381;28;20267;-48
2021/10/24 08:19:19;;;;;;;7.37;4.00;;;6.60;99.90;;;;;;5090297;28;20207;-47
2021/10/24 08:21:57;;;;;;;7.83;3.70;;;6.70;99.90;;;;;;5068899;28;20233;-48
2021/10/24 08:24:25;;;;;;;7.23;3.90;;;6.70;99.90;;;;;;5078944;28;20218;-49
2021/10/24 08:27:14;;;;;;;8.40;3.63;;;6.90;99.90;;;;;;5076869;28;20198;-48
2021/10/24 08:29:41;;;;;;;6.00;3.60;;;6.90;99.90;;;;;;5078942;28;20212;-47
2021/10/24 08:32:10;;;;;;;7.10;3.73;;;7.00;99.90;;;;;;5087814;28;20634;-43
2021/10/24 08:34:38;;;;;;;7.23;3.90;;;7.10;99.90;;;;;;5074989;28;20905;-44
2021/10/24 08:37:05;;;;;;;9.20;3.67;;;7.20;99.90;;;;;;5070755;28;20309;-48
2021/10/24 08:39:32;;;;;;;8.57;4.03;;;7.30;99.90;;;;;;5090755;28;20212;-43
2021/10/24 08:41:59;;;;;;;10.73;3.43;;;7.40;99.90;;;;;;5091405;28;20496;-42
2021/10/24 08:44:26;;;;;;;6.37;3.40;;;7.40;99.90;;;;;;5085265;28;20228;-48
2021/10/24 08:46:53;;;;;;;5.43;3.43;;;7.50;99.90;;;;;;5090631;28;20215;-46
2021/10/24 08:49:21;;;;;;;10.17;3.87;;;7.60;99.90;;;;;;5079593;28;20667;-49
2021/10/24 08:51:48;;;;;;;9.00;3.37;;;7.60;99.90;;;;;;5068680;28;20239;-44
2021/10/24 08:54:16;;;;;;;7.73;3.43;;;7.70;99.90;;;;;;5078717;28;20214;-45
2021/10/24 08:56:43;;;;;;;5.57;3.30;;;7.80;99.90;;;;;;5081113;28;20280;-42
2021/10/24 08:59:09;;;;;;;4.90;3.87;;;8.00;99.90;;;;;;5080596;28;20202;-44
2021/10/24 09:01:50;;;;;;;7.83;3.90;;;8.10;99.90;;;;;;5083990;28;20225;-44
2021/10/24 09:04:18;;;;;;;10.10;4.20;;;8.20;99.90;;;;;;5087005;28;20220;-46
2021/10/24 09:06:49;;;;;;;7.03;3.93;;;8.30;99.90;;;;;;5063603;28;20202;-44
2021/10/24 09:09:17;;;;;;;5.07;3.30;;;8.30;99.90;;;;;;5075886;28;20205;-47
2021/10/24 09:11:52;;;;;;;4.47;3.13;;;8.30;99.90;;;;;;5088306;28;20555;-47
2021/10/24 09:14:44;;;;;;;6.03;3.23;;;8.40;99.90;;;;;;5077677;28;20225;-44
2021/10/24 09:17:12;;;;;;;6.97;3.50;;;8.40;99.90;;;;;;5079144;28;20576;-47
2021/10/24 09:19:40;;;;;;;8.33;3.50;;;8.40;99.90;;;;;;5089242;28;20201;-44
2021/10/24 09:22:23;;;;;;;4.87;3.07;;;8.40;99.90;;;;;;5079665;28;20302;-44
2021/10/24 09:25:01;;;;;;;8.83;3.67;;;8.50;99.90;;;;;;5075609;28;20194;-45
2021/10/24 09:27:29;;;;;;;7.47;3.30;;;8.60;99.90;;;;;;5095091;28;20209;-43
2021/10/24 09:29:56;;;;;;;5.57;3.30;;;8.70;99.90;;;;;;5084520;28;20205;-43
2021/10/24 09:32:40;;;;;;;5.47;3.07;;;8.80;99.90;;;;;;5087782;28;20198;-43
2021/10/24 09:35:07;;;;;;;4.53;3.30;;;8.80;99.90;;;;;;5080988;28;20606;-44
2021/10/24 09:37:57;;;;;;;5.03;3.00;;;8.90;99.90;;;;;;5065989;28;20221;-47
2021/10/24 09:40:46;;;;;;;6.77;2.80;;;9.00;99.90;;;;;;5079902;28;20221;-48
2021/10/24 09:43:17;;;;;;;5.30;3.07;;;9.30;99.90;;;;;;5095666;28;20616;-47
2021/10/24 09:45:46;;;;;;;6.43;3.60;;;9.40;99.90;;;;;;5078973;28;20321;-47
2021/10/24 09:48:14;;;;;;;5.37;3.37;;;9.40;99.90;;;;;;5086391;28;20220;-45
2021/10/24 09:50:46;;;;;;;4.87;2.80;;;9.40;99.90;;;;;;5073333;28;20202;-44
2021/10/24 09:53:19;;;;;;;8.63;3.50;;;9.40;99.90;;;;;;5077821;28;20214;-47
2021/10/24 09:55:47;;;;;;;5.20;3.20;;;9.40;99.90;;;;;;5080173;28;20900;-45
2021/10/24 09:58:15;;;;;;;5.97;2.93;;;9.40;99.90;;;;;;5086166;28;20221;-44
2021/10/24 10:00:44;;;;;;;5.67;3.07;;;9.50;99.90;;;;;;5082405;28;20187;-50
2021/10/24 10:03:11;;;;;;;4.37;2.93;;;9.50;99.90;;;;;;5078275;28;20217;-46
2021/10/24 10:05:39;;;;;;;6.07;3.03;;;9.60;99.90;;;;;;5082066;28;20186;-47
2021/10/24 10:08:07;;;;;;;10.27;3.50;;;9.60;99.90;;;;;;5081039;28;20197;-47
2021/10/24 10:10:38;;;;;;;4.60;2.70;;;9.70;99.90;;;;;;5065583;28;20206;-46
2021/10/24 10:13:10;;;;;;;5.70;3.10;;;9.70;99.90;;;;;;5088019;28;20221;-47
2021/10/24 10:15:40;;;;;;;5.27;3.43;;;9.80;99.90;;;;;;5083963;28;20885;-46
2021/10/24 10:18:07;;;;;;;10.43;2.87;;;9.80;99.90;;;;;;5079709;28;20216;-45
2021/10/24 10:20:35;;;;;;;8.23;2.90;;;9.90;99.90;;;;;;5080504;28;20193;-46
2021/10/24 10:23:07;;;;;;;7.33;3.47;;;9.90;99.90;;;;;;5093013;28;20228;-48
2021/10/24 10:25:37;;;;;;;4.03;2.73;;;10.10;99.90;;;;;;5062315;28;20198;-46
2021/10/24 10:28:05;;;;;;;5.13;3.10;;;10.10;99.90;;;;;;5090759;28;20212;-44
2021/10/24 10:30:35;;;;;;;7.57;2.90;;;10.20;99.90;;;;;;5088197;28;20209;-48
2021/10/24 10:33:04;;;;;;;6.67;3.20;;;10.20;99.90;;;;;;5079043;28;20598;-48
2021/10/24 10:35:31;;;;;;;5.50;2.67;;;10.20;99.90;;;;;;5076137;28;20263;-45
2021/10/24 10:37:59;;;;;;;5.73;3.03;;;10.30;99.90;;;;;;5085437;28;20213;-49
2021/10/24 10:40:30;;;;;;;7.63;2.77;;;10.30;99.90;;;;;;5071351;28;20194;-50
2021/10/24 10:43:02;;;;;;;5.43;2.87;;;10.30;99.90;;;;;;5079892;28;20220;-45
2021/10/24 10:45:39;;;;;;;4.90;3.10;;;10.40;99.90;;;;;;5076568;28;20285;-48
2021/10/24 10:48:08;;;;;;;7.00;2.67;;;10.50;99.90;;;;;;5079073;28;20202;-44
2021/10/24 10:50:46;;;;;;;6.73;2.93;;;10.60;99.90;;;;;;5074709;28;20369;-45
2021/10/24 10:53:36;;;;;;;5.17;3.10;;;10.70;99.90;;;;;;5087980;28;20325;-45
2021/10/24 10:56:24;;;;;;;8.43;3.00;;;10.70;99.90;;;;;;5073638;28;20225;-52
2021/10/24 10:58:53;;;;;;;4.30;3.20;;;10.80;99.90;;;;;;5077350;28;20248;-46
2021/10/24 11:01:29;;;;;;;10.10;3.90;;;10.80;99.90;;;;;;5086256;28;20205;-45
2021/10/24 11:03:58;;;;;;;4.33;2.90;;;10.90;99.90;;;;;;5074140;28;20221;-46
2021/10/24 11:06:43;;;;;;;7.83;3.60;;;;;;;;;;5066730;28;20198;-47
2021/10/24 11:09:11;;;;;;;6.73;3.10;;;11.00;99.90;;;;;;5088922;28;20185;-50
2021/10/24 11:11:57;;;;;;;6.67;3.20;;;11.00;99.90;;;;;;5064296;28;24652;-45
2021/10/24 11:14:45;;;;;;;5.13;2.77;;;11.00;99.90;;;;;;5082278;28;20214;-47
2021/10/24 11:17:33;;;;;;;3.30;2.57;;;11.10;99.90;;;;;;5081557;28;20337;-48
2021/10/24 11:20:28;;;;;;;4.83;2.37;;;11.20;99.90;;;;;;5079924;28;20229;-48
2021/10/24 11:22:58;;;;;;;4.43;2.73;;;11.20;99.90;;;;;;5069541;28;20225;-49
2021/10/24 11:25:33;;;;;;;3.40;2.40;;;11.20;99.90;;;;;;5080144;28;20780;-51
2021/10/24 11:28:07;;;;;;;8.37;2.57;;;11.20;99.90;;;;;;5062907;28;20202;-47
2021/10/24 11:30:37;;;;;;;4.63;2.30;;;11.30;99.90;;;;;;5085407;28;20185;-49
2021/10/24 11:33:04;;;;;;;2.90;2.17;;;11.30;99.90;;;;;;5084196;28;20217;-46
2021/10/24 11:35:31;;;;;;;3.90;2.17;;;11.40;99.90;;;;;;5067641;28;20209;-50
2021/10/24 11:37:59;;;;;;;4.10;1.93;;;11.50;99.90;;;;;;5077959;28;20218;-48
2021/10/24 11:40:28;;;;;;;5.33;2.40;;;11.60;99.90;;;;;;5078017;28;20190;-47
2021/10/24 11:43:05;;;;;;;4.20;2.80;;;11.50;99.90;;;;;;5078158;28;20718;-50
2021/10/24 11:45:36;;;;;;;2.80;1.90;;;11.60;99.90;;;;;;5078878;28;20851;-47
2021/10/24 11:48:05;;;;;;;4.67;2.10;;;11.50;99.90;;;;;;5079709;28;20195;-48
2021/10/24 11:50:45;;;;;;;2.10;1.80;;;11.60;99.90;;;;;;5075353;28;20209;-47
2021/10/24 11:53:12;;;;;;;3.27;2.43;;;11.60;99.90;;;;;;5080444;28;20228;-44
2021/10/24 11:55:40;;;;;;;3.57;2.40;;;11.60;99.90;;;;;;5081762;28;20198;-49
2021/10/24 11:58:20;;;;;;;2.87;2.20;;;11.70;99.90;;;;;;5078881;28;20223;-49
2021/10/24 12:00:51;;;;;;;3.70;2.10;;;11.80;99.90;;;;;;5058040;28;20193;-50
2021/10/24 12:03:30;;;;;;;4.33;2.13;;;11.80;99.90;;;;;;5078587;28;20274;-46
2021/10/24 12:05:57;;;;;;;3.43;1.60;;;11.80;99.90;;;;;;5078326;28;20208;-49
2021/10/24 12:08:47;;;;;;;3.57;2.00;;;11.80;99.90;;;;;;5079367;28;22397;-45
2021/10/24 12:11:17;;;;;;;2.57;2.00;;;11.90;99.90;;;;;;5076397;28;20190;-48
2021/10/24 12:13:45;;;;;;;3.60;2.40;;;11.90;99.90;;;;;;5079127;28;20578;-49
2021/10/24 12:16:32;;;;;;;5.33;1.97;;;11.90;99.90;;;;;;5061302;28;20198;-46
2021/10/24 12:19:11;;;;;;;3.40;2.00;;;11.90;99.90;;;;;;5077666;28;20218;-48
2021/10/24 12:21:38;;;;;;;3.60;2.23;;;12.00;99.90;;;;;;5072450;28;20672;-47
2021/10/24 12:24:16;;;;;;;2.33;1.80;;;12.00;99.90;;;;;;5075054;28;20213;-48
2021/10/24 12:26:45;;;;;;;2.97;1.97;;;12.00;99.90;;;;;;5088404;28;20198;-44
2021/10/24 12:29:16;;;;;;;3.70;2.23;;;12.10;99.90;;;;;;5072755;28;20190;-46
2021/10/24 12:31:45;;;;;;;5.63;1.90;;;12.10;99.90;;;;;;5070942;28;20206;-50
2021/10/24 12:34:13;;;;;;;5.50;2.00;;;12.20;99.90;;;;;;5078994;28;21290;-46
2021/10/24 12:36:41;;;;;;;2.00;1.90;;;12.20;99.90;;;;;;5078929;28;20209;-46
2021/10/24 12:39:10;;;;;;;5.27;1.90;;;12.30;99.90;;;;;;5074088;28;20232;-45
2021/10/24 12:41:38;;;;;;;2.37;1.90;;;12.30;99.90;;;;;;5075039;28;20201;-48
2021/10/24 12:44:06;;;;;;;5.33;2.13;;;12.40;99.90;;;;;;5084929;28;20225;-46
2021/10/24 12:46:34;;;;;;;4.47;1.77;;;12.40;99.90;;;;;;5063775;28;20210;-45
2021/10/24 12:49:11;;;;;;;3.53;1.60;;;12.50;99.90;;;;;;5073997;28;20202;-50
2021/10/24 12:51:38;;;;;;;1.67;1.47;;;12.60;99.90;;;;;;5075515;28;20213;-45
2021/10/24 12:54:06;;;;;;;4.13;1.83;;;12.50;99.90;;;;;;5072427;28;20309;-45
2021/10/24 12:56:34;;;;;;;4.37;1.80;;;12.50;99.90;;;;;;5070317;28;20219;-46
2021/10/24 12:59:02;;;;;;;5.50;1.50;;;12.60;99.90;;;;;;5077921;28;20237;-47
2021/10/24 13:01:30;;;;;;;4.67;1.80;;;12.60;99.90;;;;;;5077835;28;20197;-47
2021/10/24 13:03:58;;;;;;;3.43;1.40;;;12.60;99.90;;;;;;5064579;28;20327;-48
2021/10/24 13:06:27;;;;;;;3.07;1.60;;;12.60;99.90;;;;;;5077507;28;20225;-49
2021/10/24 13:08:55;;;;;;;4.57;1.80;;;12.60;99.90;;;;;;5073087;28;20222;-48
2021/10/24 13:11:21;;;;;;;3.33;1.50;;;12.70;99.90;;;;;;5075051;28;20562;-46